createdAt,value
2018-12-13T00:02:20.100Z,-4.10
2018-12-13T00:04:56.347Z,-4.10
2018-12-13T00:07:31.985Z,-4.10
2018-12-13T00:10:04.309Z,-4.00
2018-12-13T00:12:36.629Z,-4.00
2018-12-13T00:15:09.009Z,-4.00
2018-12-13T00:17:40.810Z,-4.00
2018-12-13T00:20:13.399Z,-4.10
2018-12-13T00:22:45.399Z,-4.10
2018-12-13T00:25:17.475Z,-4.20
2018-12-13T00:27:49.464Z,-4.30
2018-12-13T00:30:25.924Z,-4.30
2018-12-13T00:33:03.042Z,-4.30
2018-12-13T00:35:35.013Z,-4.40
2018-12-13T00:38:06.993Z,-4.40
2018-12-13T00:40:39.287Z,-4.30
2018-12-13T00:43:14.807Z,-4.30
2018-12-13T00:45:46.767Z,-4.30
2018-12-13T00:48:18.977Z,-4.40
2018-12-13T00:50:51.085Z,-4.50
2018-12-13T00:53:23.111Z,-4.60
2018-12-13T00:55:55.217Z,-4.70
2018-12-13T00:58:31.700Z,-4.70
2018-12-13T01:01:04.137Z,-4.70
2018-12-13T01:03:36.319Z,-4.70
2018-12-13T01:06:08.764Z,-4.70
2018-12-13T01:08:40.662Z,-4.80
2018-12-13T01:11:12.792Z,-4.70
2018-12-13T01:13:45.034Z,-4.60
2018-12-13T01:16:22.320Z,-4.60
2018-12-13T01:18:59.318Z,-4.60
2018-12-13T01:21:35.449Z,-4.60
2018-12-13T01:24:07.745Z,-4.50
2018-12-13T01:26:44.294Z,-4.50
2018-12-13T01:29:16.556Z,-4.50
2018-12-13T01:31:48.579Z,-4.50
2018-12-13T01:34:20.993Z,-4.60
2018-12-13T01:36:57.385Z,-4.60
2018-12-13T01:39:29.469Z,-4.60
2018-12-13T01:42:01.658Z,-4.60
2018-12-13T01:44:33.892Z,-4.60
2018-12-13T01:47:10.020Z,-4.60
2018-12-13T01:49:46.482Z,-4.60
2018-12-13T01:52:18.565Z,-4.50
2018-12-13T01:54:57.975Z,-4.50
2018-12-13T01:57:30.002Z,-4.60
2018-12-13T02:00:06.496Z,-4.60
2018-12-13T02:10:18.116Z,-4.40
2018-12-13T02:12:54.278Z,-4.40
2018-12-13T02:15:26.400Z,-4.40
2018-12-13T02:17:58.702Z,-4.50
2018-12-13T02:20:34.212Z,-4.50
2018-12-13T02:23:06.344Z,-4.50
2018-12-13T02:25:38.382Z,-4.50
2018-12-13T02:28:15.656Z,-4.50
2018-12-13T02:30:47.972Z,-4.50
2018-12-13T02:33:20.169Z,-4.60
2018-12-13T02:35:52.228Z,-4.60
2018-12-13T02:38:24.562Z,-4.70
2018-12-13T02:40:56.638Z,-4.70
2018-12-13T02:43:28.946Z,-4.80
2018-12-13T02:46:00.951Z,-4.90
2018-12-13T02:48:33.134Z,-4.90
2018-12-13T02:51:09.538Z,-4.90
2018-12-13T02:53:41.516Z,-4.90
2018-12-13T02:56:13.484Z,-4.90
2018-12-13T02:58:45.686Z,-4.90
2018-12-13T03:01:18.094Z,-4.90
2018-12-13T03:03:50.360Z,-4.80
2018-12-13T03:06:22.486Z,-4.80
2018-12-13T03:08:54.883Z,-4.90
2018-12-13T03:11:27.254Z,-5.00
2018-12-13T03:13:59.252Z,-4.90
2018-12-13T03:16:31.244Z,-4.90
2018-12-13T03:19:03.649Z,-5.00
2018-12-13T03:21:39.171Z,-5.00
2018-12-13T03:24:15.569Z,-5.00
2018-12-13T03:26:47.897Z,-5.00
2018-12-13T03:29:19.885Z,-5.10
2018-12-13T03:31:51.903Z,-5.10
2018-12-13T03:34:24.107Z,-5.10
2018-12-13T03:36:56.097Z,-5.00
2018-12-13T03:39:32.728Z,-5.00
2018-12-13T03:42:05.254Z,-5.00
2018-12-13T03:44:40.751Z,-5.00
2018-12-13T03:47:13.134Z,-5.00
2018-12-13T03:49:48.671Z,-5.00
2018-12-13T03:52:21.004Z,-5.00
2018-12-13T03:54:57.413Z,-5.10
2018-12-13T03:57:29.920Z,-5.10
2018-12-13T04:00:02.139Z,-5.20
2018-12-13T04:02:34.485Z,-5.20
2018-12-13T04:05:06.537Z,-5.20
2018-12-13T04:07:42.834Z,-5.10
2018-12-13T04:20:27.082Z,-5.10
2018-12-13T04:22:59.191Z,-5.10
2018-12-13T04:25:31.367Z,-5.20
2018-12-13T04:28:03.709Z,-5.20
2018-12-13T04:30:35.934Z,-5.20
2018-12-13T04:33:08.124Z,-5.20
2018-12-13T04:35:40.419Z,-5.20
2018-12-13T04:38:15.906Z,-5.10
2018-12-13T04:40:51.404Z,-5.10
2018-12-13T04:43:27.754Z,-5.00
2018-12-13T04:45:59.853Z,-5.00
2018-12-13T04:48:35.392Z,-4.90
2018-12-13T04:51:07.675Z,-4.90
2018-12-13T04:53:40.064Z,-4.90
2018-12-13T04:56:12.714Z,-5.00
2018-12-13T04:58:44.871Z,-5.00
2018-12-13T05:01:17.157Z,-5.00
2018-12-13T05:03:49.454Z,-5.00
2018-12-13T05:06:21.727Z,-5.10
2018-12-13T05:08:53.929Z,-5.10
2018-12-13T05:11:26.257Z,-5.10
2018-12-13T05:13:58.293Z,-5.00
2018-12-13T05:16:30.499Z,-5.10
2018-12-13T05:19:02.537Z,-5.10
2018-12-13T05:21:34.671Z,-5.20
2018-12-13T05:24:06.787Z,-5.30
2018-12-13T05:26:39.109Z,-5.30
2018-12-13T05:29:11.542Z,-5.40
2018-12-13T05:31:43.917Z,-5.40
2018-12-13T05:34:16.102Z,-5.30
2018-12-13T05:36:48.430Z,-5.30
2018-12-13T05:39:20.678Z,-5.20
2018-12-13T05:41:52.959Z,-5.20
2018-12-13T05:44:24.650Z,-5.20
2018-12-13T05:46:56.944Z,-5.20
2018-12-13T05:49:29.152Z,-5.30
2018-12-13T05:52:01.237Z,-5.30
2018-12-13T05:54:33.544Z,-5.30
2018-12-13T05:57:05.844Z,-5.30
2018-12-13T05:59:41.442Z,-5.20
2018-12-13T06:02:13.312Z,-5.20
2018-12-13T06:04:49.776Z,-5.20
2018-12-13T06:07:22.197Z,-5.20
2018-12-13T06:09:58.825Z,-5.20
2018-12-13T06:12:30.972Z,-5.30
2018-12-13T06:15:02.896Z,-5.30
2018-12-13T06:17:38.815Z,-5.40
2018-12-13T06:20:11.148Z,-5.40
2018-12-13T06:22:43.439Z,-5.40
2018-12-13T06:25:15.477Z,-5.50
2018-12-13T06:27:47.617Z,-5.50
2018-12-13T06:30:19.730Z,-5.40
2018-12-13T06:32:52.140Z,-5.30
2018-12-13T06:35:24.331Z,-5.20
2018-12-13T06:38:01.284Z,-5.20
2018-12-13T06:40:30.664Z,-5.30
2018-12-13T06:43:02.916Z,-5.30
2018-12-13T06:45:35.096Z,-5.30
2018-12-13T06:48:07.341Z,-5.30
2018-12-13T06:50:39.336Z,-5.40
2018-12-13T06:53:11.680Z,-5.40
2018-12-13T06:55:43.492Z,-5.30
2018-12-13T06:58:15.593Z,-5.40
2018-12-13T07:00:47.733Z,-5.40
2018-12-13T07:03:20.157Z,-5.40
2018-12-13T07:05:52.088Z,-5.30
2018-12-13T07:08:24.376Z,-5.30
2018-12-13T07:10:56.373Z,-5.30
2018-12-13T07:13:28.792Z,-5.30
2018-12-13T07:16:00.887Z,-5.30
2018-12-13T07:18:33.067Z,-5.30
2018-12-13T07:21:08.580Z,-5.30
2018-12-13T07:23:40.906Z,-5.30
2018-12-13T07:26:17.753Z,-5.30
2018-12-13T07:28:49.770Z,-5.30
2018-12-13T07:31:26.905Z,-5.30
2018-12-13T07:33:58.919Z,-5.30
2018-12-13T07:36:30.989Z,-5.30
2018-12-13T07:39:09.157Z,-5.20
2018-12-13T07:41:41.585Z,-5.10
2018-12-13T07:44:13.741Z,-5.10
2018-12-13T07:46:45.333Z,-5.00
2018-12-13T07:49:17.531Z,-5.00
2018-12-13T07:51:49.823Z,-5.00
2018-12-13T07:54:22.008Z,-5.00
2018-12-13T07:56:58.361Z,-5.00
2018-12-13T07:59:34.687Z,-4.90
2018-12-13T08:02:06.937Z,-4.90
2018-12-13T08:04:39.326Z,-4.90
2018-12-13T08:07:11.753Z,-4.90
2018-12-13T08:09:43.778Z,-4.90
2018-12-13T08:12:16.150Z,-4.80
2018-12-13T08:14:48.521Z,-4.90
2018-12-13T08:17:20.716Z,-4.90
2018-12-13T08:19:53.084Z,-4.90
2018-12-13T08:22:25.434Z,-4.90
2018-12-13T08:24:57.362Z,-4.90
2018-12-13T08:27:29.610Z,-4.90
2018-12-13T08:30:01.939Z,-4.90
2018-12-13T08:32:34.115Z,-4.80
2018-12-13T08:35:06.575Z,-4.80
2018-12-13T08:37:38.631Z,-4.80
2018-12-13T08:40:10.746Z,-4.70
2018-12-13T08:42:46.923Z,-4.70
2018-12-13T08:45:19.187Z,-4.70
2018-12-13T08:47:54.680Z,-4.60
2018-12-13T08:50:26.963Z,-4.70
2018-12-13T08:52:59.013Z,-4.70
2018-12-13T08:55:31.225Z,-4.70
2018-12-13T08:58:03.316Z,-4.70
2018-12-13T09:00:35.425Z,-4.70
2018-12-13T09:03:07.617Z,-4.60
2018-12-13T09:05:39.897Z,-4.50
2018-12-13T09:08:11.912Z,-4.40
2018-12-13T09:10:44.139Z,-4.40
2018-12-13T09:13:16.404Z,-4.30
2018-12-13T09:15:48.348Z,-4.30
2018-12-13T09:18:20.627Z,-4.20
2018-12-13T09:20:52.857Z,-4.20
2018-12-13T09:23:25.250Z,-4.10
2018-12-13T09:25:57.553Z,-4.00
2018-12-13T09:28:29.671Z,-3.90
2018-12-13T09:31:02.041Z,-3.90
2018-12-13T09:33:34.155Z,-3.80
2018-12-13T09:36:06.217Z,-3.80
2018-12-13T09:38:39.960Z,-3.70
2018-12-13T09:41:12.521Z,-3.70
2018-12-13T09:43:45.512Z,-3.70
2018-12-13T09:46:21.114Z,-3.60
2018-12-13T09:48:52.625Z,-3.50
2018-12-13T09:51:28.923Z,-3.40
2018-12-13T09:54:01.007Z,-3.30
2018-12-13T09:56:33.303Z,-3.20
2018-12-13T09:59:05.319Z,-3.10
2018-12-13T10:01:37.653Z,-2.90
2018-12-13T10:04:09.834Z,-2.80
2018-12-13T10:06:41.843Z,-2.70
2018-12-13T10:09:14.151Z,-2.50
2018-12-13T10:11:46.296Z,-2.40
2018-12-13T10:14:18.498Z,-2.30
2018-12-13T10:16:50.919Z,-2.10
2018-12-13T10:19:23.138Z,-1.90
2018-12-13T10:21:58.678Z,-1.70
2018-12-13T10:24:31.192Z,-1.50
2018-12-13T10:27:06.988Z,-1.40
2018-12-13T10:29:39.219Z,-1.40
2018-12-13T10:32:11.412Z,-1.30
2018-12-13T10:34:43.616Z,-1.30
2018-12-13T10:37:15.798Z,-1.20
2018-12-13T10:39:48.096Z,-1.20
2018-12-13T10:42:24.445Z,-1.10
2018-12-13T10:44:56.452Z,-1.10
2018-12-13T10:47:28.737Z,-1.10
2018-12-13T10:50:00.939Z,-1.00
2018-12-13T10:52:33.275Z,-1.00
2018-12-13T10:55:06.099Z,-0.90
2018-12-13T10:57:37.959Z,-0.90
2018-12-13T11:00:14.563Z,-0.80
2018-12-13T11:02:59.618Z,-0.70
2018-12-13T11:05:31.603Z,-0.70
2018-12-13T11:08:03.918Z,-0.50
2018-12-13T11:10:36.143Z,-0.50
2018-12-13T11:13:08.272Z,-0.40
2018-12-13T11:15:40.404Z,-0.30
2018-12-13T11:18:12.722Z,-0.30
2018-12-13T11:20:44.596Z,-0.20
2018-12-13T11:23:16.907Z,-0.10
2018-12-13T11:25:49.196Z,-0.10
2018-12-13T11:28:32.527Z,0.00
2018-12-13T11:31:04.397Z,0.00
2018-12-13T11:33:36.663Z,0.10
2018-12-13T11:36:08.644Z,0.10
2018-12-13T11:38:40.714Z,0.20
2018-12-13T11:41:12.999Z,0.20
2018-12-13T11:43:45.063Z,0.30
2018-12-13T11:46:17.170Z,0.30
2018-12-13T11:48:49.646Z,0.40
2018-12-13T11:51:21.852Z,0.50
2018-12-13T11:53:54.566Z,0.50
2018-12-13T11:56:30.279Z,0.60
2018-12-13T11:59:02.719Z,0.60
2018-12-13T12:01:34.922Z,0.60
2018-12-13T12:04:07.112Z,0.70
2018-12-13T12:06:39.507Z,0.70
2018-12-13T12:09:12.374Z,0.80
2018-12-13T12:11:45.593Z,0.80
2018-12-13T12:14:17.930Z,0.90
2018-12-13T12:16:50.006Z,0.90
2018-12-13T12:19:22.293Z,0.90
2018-12-13T12:21:54.496Z,1.00
2018-12-13T12:24:26.557Z,1.10
2018-12-13T12:26:58.802Z,1.20
2018-12-13T12:29:31.214Z,1.30
2018-12-13T12:32:03.261Z,1.30
2018-12-13T12:34:35.428Z,1.40
2018-12-13T12:37:07.734Z,1.50
2018-12-13T12:39:39.934Z,1.70
2018-12-13T12:42:12.296Z,1.80
2018-12-13T12:44:48.490Z,1.90
2018-12-13T12:47:20.556Z,2.00
2018-12-13T12:49:52.720Z,2.00
2018-12-13T12:52:28.248Z,2.10
2018-12-13T12:55:04.035Z,2.30
2018-12-13T12:57:36.338Z,2.50
2018-12-13T13:00:09.639Z,2.60
2018-12-13T13:02:42.143Z,2.90
2018-12-13T13:05:14.020Z,3.00
2018-12-13T13:07:46.435Z,3.00
2018-12-13T13:10:18.617Z,3.10
2018-12-13T13:12:51.054Z,3.20
2018-12-13T13:15:23.353Z,3.40
2018-12-13T13:17:58.931Z,3.60
2018-12-13T13:20:30.402Z,3.70
2018-12-13T13:23:02.294Z,3.60
2018-12-13T13:25:34.398Z,3.60
2018-12-13T13:28:06.785Z,3.80
2018-12-13T13:30:43.930Z,3.90
2018-12-13T13:33:16.342Z,3.80
2018-12-13T13:35:48.769Z,3.60
2018-12-13T13:38:25.028Z,3.40
2018-12-13T13:40:57.226Z,3.10
2018-12-13T13:43:29.456Z,2.70
2018-12-13T13:46:01.666Z,2.60
2018-12-13T13:48:33.832Z,2.40
2018-12-13T13:51:06.258Z,2.40
2018-12-13T13:53:38.426Z,2.30
2018-12-13T13:56:10.664Z,2.20
2018-12-13T13:58:42.934Z,2.20
2018-12-13T14:01:15.053Z,2.10
2018-12-13T14:03:47.234Z,2.00
2018-12-13T14:06:19.346Z,2.00
2018-12-13T14:08:51.321Z,2.00
2018-12-13T14:11:27.555Z,1.90
2018-12-13T14:13:59.697Z,1.90
2018-12-13T14:16:31.889Z,1.80
2018-12-13T14:19:04.319Z,1.70
2018-12-13T14:21:36.407Z,1.70
2018-12-13T14:24:08.732Z,1.70
2018-12-13T14:26:40.827Z,1.60
2018-12-13T14:29:12.948Z,1.60
2018-12-13T14:31:45.138Z,1.60
2018-12-13T14:34:20.690Z,1.60
2018-12-13T14:36:52.949Z,1.50
2018-12-13T14:39:25.227Z,1.50
2018-12-13T14:41:57.500Z,1.50
2018-12-13T14:44:29.593Z,1.50
2018-12-13T14:47:05.932Z,1.40
2018-12-13T14:49:38.315Z,1.40
2018-12-13T14:52:10.690Z,1.40
2018-12-13T14:54:42.954Z,1.30
2018-12-13T14:57:15.102Z,1.30
2018-12-13T14:59:47.276Z,1.30
2018-12-13T15:02:19.269Z,1.30
2018-12-13T15:04:55.609Z,1.20
2018-12-13T15:07:27.504Z,1.20
2018-12-13T15:09:59.707Z,1.20
2018-12-13T15:12:31.724Z,1.10
2018-12-13T15:15:04.258Z,1.10
2018-12-13T15:17:41.310Z,1.10
2018-12-13T15:20:16.802Z,1.00
2018-12-13T15:22:49.213Z,1.00
2018-12-13T15:25:24.801Z,1.00
2018-12-13T15:27:57.020Z,0.90
2018-12-13T15:30:29.328Z,0.90
2018-12-13T15:33:02.427Z,0.80
2018-12-13T15:35:34.595Z,0.80
2018-12-13T15:38:06.580Z,0.70
2018-12-13T15:40:38.635Z,0.60
2018-12-13T15:43:10.902Z,0.60
2018-12-13T15:45:43.041Z,0.60
2018-12-13T15:48:15.257Z,0.60
2018-12-13T15:50:47.459Z,0.60
2018-12-13T15:53:19.866Z,0.70
2018-12-13T15:55:51.953Z,0.70
2018-12-13T15:58:24.150Z,0.60
2018-12-13T16:00:56.518Z,0.60
2018-12-13T16:03:32.870Z,0.60
2018-12-13T16:06:05.158Z,0.50
2018-12-13T16:08:37.472Z,0.50
2018-12-13T16:11:09.685Z,0.50
2018-12-13T16:13:41.870Z,0.50
2018-12-13T16:16:17.490Z,0.50
2018-12-13T16:18:53.811Z,0.40
2018-12-13T16:21:25.920Z,0.40
2018-12-13T16:23:58.050Z,0.40
2018-12-13T16:26:30.260Z,0.40
2018-12-13T16:29:02.339Z,0.40
2018-12-13T16:31:38.659Z,0.40
2018-12-13T16:34:10.875Z,0.30
2018-12-13T16:36:42.896Z,0.30
2018-12-13T16:39:18.398Z,0.40
2018-12-13T16:41:50.761Z,0.30
2018-12-13T16:44:22.969Z,0.30
2018-12-13T16:46:55.363Z,0.30
2018-12-13T16:49:27.360Z,0.30
2018-12-13T16:52:03.674Z,0.30
2018-12-13T16:54:35.893Z,0.30
2018-12-13T16:57:08.283Z,0.30
2018-12-13T16:59:40.322Z,0.40
2018-12-13T17:02:16.642Z,0.40
2018-12-13T17:04:48.865Z,0.40
2018-12-13T17:07:24.792Z,0.30
2018-12-13T17:09:57.104Z,0.30
2018-12-13T17:12:29.285Z,0.30
2018-12-13T17:15:01.483Z,0.30
2018-12-13T17:17:33.574Z,0.40
2018-12-13T17:20:06.115Z,0.40
2018-12-13T17:22:37.934Z,0.40
2018-12-13T17:25:09.912Z,0.40
2018-12-13T17:27:41.991Z,0.30
2018-12-13T17:30:14.058Z,0.30
2018-12-13T17:32:46.229Z,0.30
2018-12-13T17:35:18.400Z,0.30
2018-12-13T18:05:47.222Z,0.50
2018-12-13T18:08:19.406Z,0.40
2018-12-13T18:10:54.949Z,0.50
2018-12-13T18:13:27.424Z,0.50
2018-12-13T18:15:59.728Z,0.50
2018-12-13T18:18:32.044Z,0.40
2018-12-13T18:21:04.184Z,0.40
2018-12-13T18:23:40.075Z,0.40
2018-12-13T18:26:12.279Z,0.40
2018-12-13T18:28:44.621Z,0.40
2018-12-13T18:31:16.831Z,0.40
2018-12-13T18:33:49.165Z,0.40
2018-12-13T18:36:21.909Z,0.40
2018-12-13T18:38:53.581Z,0.40
2018-12-13T18:41:25.842Z,0.40
2018-12-13T18:44:03.142Z,0.40
2018-12-13T18:46:35.245Z,0.40
2018-12-13T18:49:07.346Z,0.30
2018-12-13T18:51:39.876Z,0.40
2018-12-13T18:54:11.957Z,0.30
2018-12-13T18:56:44.147Z,0.40
2018-12-13T18:59:16.341Z,0.40
2018-12-13T19:01:52.759Z,0.40
2018-12-13T19:04:24.738Z,0.40
2018-12-13T19:06:56.977Z,0.40
2018-12-13T19:09:29.179Z,0.40
2018-12-13T19:12:01.514Z,0.40
2018-12-13T19:14:33.902Z,0.40
2018-12-13T19:17:06.054Z,0.40
2018-12-13T19:19:41.542Z,0.40
2018-12-13T19:22:13.858Z,0.40
2018-12-13T19:24:51.070Z,0.40
2018-12-13T19:27:23.280Z,0.40
2018-12-13T19:29:58.784Z,0.40
2018-12-13T19:32:34.301Z,0.40
2018-12-13T19:35:06.948Z,0.30
2018-12-13T19:37:39.290Z,0.40
2018-12-13T19:40:11.335Z,0.30
2018-12-13T19:42:43.570Z,0.30
2018-12-13T19:45:15.853Z,0.30
2018-12-13T19:47:47.366Z,0.40
2018-12-13T19:50:19.626Z,0.40
2018-12-13T19:52:51.760Z,0.40
2018-12-13T19:55:23.732Z,0.40
2018-12-13T19:58:00.033Z,0.40
2018-12-13T20:00:37.102Z,0.40
2018-12-13T20:03:09.461Z,0.40
2018-12-13T20:05:41.601Z,0.40
2018-12-13T20:08:14.649Z,0.40
2018-12-13T20:10:46.836Z,0.40
2018-12-13T20:13:19.185Z,0.40
2018-12-13T20:15:51.568Z,0.40
2018-12-13T20:18:23.869Z,0.40
2018-12-13T20:20:56.161Z,0.40
2018-12-13T20:23:28.477Z,0.40
2018-12-13T20:26:00.750Z,0.40
2018-12-13T20:28:32.885Z,0.40
2018-12-13T20:31:05.285Z,0.40
2018-12-13T20:33:41.767Z,0.40
2018-12-13T20:36:13.988Z,0.40
2018-12-13T20:38:46.282Z,0.40
2018-12-13T20:41:18.481Z,0.40
2018-12-13T20:43:50.617Z,0.30
2018-12-13T20:46:22.477Z,0.30
2018-12-13T20:48:54.877Z,0.30
2018-12-13T20:51:27.143Z,0.30
2018-12-13T20:53:59.432Z,0.30
2018-12-13T20:56:34.961Z,0.30
2018-12-13T20:59:07.248Z,0.30
2018-12-13T21:01:39.651Z,0.30
2018-12-13T21:04:11.949Z,0.20
2018-12-13T21:06:53.246Z,0.20
2018-12-13T21:09:25.333Z,0.20
2018-12-13T21:12:02.458Z,0.20
2018-12-13T21:14:34.725Z,0.20
2018-12-13T21:17:06.897Z,0.30
2018-12-13T21:19:42.450Z,0.30
2018-12-13T21:22:14.674Z,0.30
2018-12-13T21:24:47.025Z,0.30
2018-12-13T21:27:19.316Z,0.40
2018-12-13T21:29:51.290Z,0.40
2018-12-13T21:32:23.588Z,0.40
2018-12-13T21:34:55.778Z,0.40
2018-12-13T21:37:28.030Z,0.40
2018-12-13T21:40:03.816Z,0.40
2018-12-13T21:42:35.708Z,0.40
2018-12-13T21:45:08.278Z,0.40
2018-12-13T21:47:40.457Z,0.40
2018-12-13T21:50:12.578Z,0.40
2018-12-13T21:52:48.158Z,0.40
2018-12-13T21:55:20.497Z,0.40
2018-12-13T21:57:55.985Z,0.40
2018-12-13T22:00:28.246Z,0.50
2018-12-13T22:03:00.325Z,0.40
2018-12-13T22:05:32.449Z,0.40
2018-12-13T22:08:04.614Z,0.40
2018-12-13T22:10:37.019Z,0.40
2018-12-13T22:13:08.811Z,0.40
2018-12-13T22:15:41.234Z,0.40
2018-12-13T22:18:13.363Z,0.40
2018-12-13T22:20:50.475Z,0.40
2018-12-13T22:23:22.561Z,0.40
2018-12-13T22:25:54.754Z,0.40
2018-12-13T22:28:27.171Z,0.50
2018-12-13T22:30:59.354Z,0.50
2018-12-13T22:33:35.697Z,0.40
2018-12-13T22:36:07.905Z,0.40
2018-12-13T22:38:39.951Z,0.50
2018-12-13T22:41:12.071Z,0.50
2018-12-13T22:43:44.366Z,0.50
2018-12-13T22:46:16.633Z,0.50
2018-12-13T22:48:49.042Z,0.50
2018-12-13T22:51:24.510Z,0.50
2018-12-13T22:53:56.631Z,0.50
2018-12-13T22:56:28.642Z,0.50
2018-12-13T22:59:00.724Z,0.50
2018-12-13T23:01:32.958Z,0.60
2018-12-13T23:04:05.267Z,0.60
2018-12-13T23:06:42.288Z,0.60
2018-12-13T23:09:14.502Z,0.50
2018-12-13T23:11:47.419Z,0.60
2018-12-13T23:14:24.191Z,0.50
2018-12-13T23:17:00.810Z,0.60
2018-12-13T23:19:33.019Z,0.50
2018-12-13T23:22:05.222Z,0.50
2018-12-13T23:24:37.273Z,0.50
2018-12-13T23:27:09.583Z,0.50
2018-12-13T23:29:42.025Z,0.50
2018-12-13T23:32:13.849Z,0.50
2018-12-13T23:34:46.135Z,0.50
2018-12-13T23:37:22.394Z,0.50
2018-12-13T23:39:57.887Z,0.50
2018-12-13T23:42:29.897Z,0.50
2018-12-13T23:45:02.181Z,0.50
2018-12-13T23:47:34.303Z,0.50
2018-12-13T23:50:06.738Z,0.50
2018-12-13T23:52:38.739Z,0.60
2018-12-13T23:55:15.881Z,0.50
2018-12-13T23:57:52.303Z,0.50
